createdAt,value
2018-09-02T00:02:10.943Z,25.90
2018-09-02T00:04:43.787Z,25.10
2018-09-02T00:07:17.226Z,26.50
2018-09-02T00:09:49.344Z,25.07
2018-09-02T00:12:30.910Z,25.23
2018-09-02T00:15:12.273Z,26.50
2018-09-02T00:17:44.858Z,25.97
2018-09-02T00:20:33.434Z,27.90
2018-09-02T00:23:15.840Z,28.13
2018-09-02T00:25:55.816Z,29.20
2018-09-02T00:28:24.936Z,26.57
2018-09-02T00:30:53.391Z,30.50
2018-09-02T00:33:30.790Z,27.07
2018-09-02T00:35:59.269Z,28.60
2018-09-02T00:38:43.765Z,27.20
2018-09-02T00:41:28.993Z,25.60
2018-09-02T00:44:13.997Z,26.70
2018-09-02T00:47:04.128Z,25.50
2018-09-02T00:50:07.683Z,22.37
2018-09-02T00:52:54.307Z,24.10
2018-09-02T00:55:36.773Z,23.67
2018-09-02T00:58:17.493Z,25.70
2018-09-02T01:00:54.953Z,25.20
2018-09-02T01:06:20.088Z,21.30
2018-09-02T01:08:53.225Z,22.50
2018-09-02T01:11:32.241Z,22.47
2018-09-02T01:14:00.679Z,21.67
2018-09-02T01:16:56.709Z,22.03
2018-09-02T01:19:25.147Z,22.67
2018-09-02T01:21:59.851Z,17.57
2018-09-02T01:24:38.513Z,17.77
2018-09-02T01:27:23.167Z,19.97
2018-09-02T01:30:07.161Z,19.70
2018-09-02T01:32:44.005Z,18.87
2018-09-02T01:38:06.623Z,21.10
2018-09-02T01:40:35.885Z,18.97
2018-09-02T01:43:05.087Z,19.07
2018-09-02T01:45:44.173Z,19.17
2018-09-02T01:48:27.679Z,18.00
2018-09-02T01:50:56.115Z,17.77
2018-09-02T01:53:31.145Z,19.10
2018-09-02T01:56:20.985Z,17.53
2018-09-02T01:58:50.995Z,18.70
2018-09-02T02:01:25.920Z,20.20
2018-09-02T02:04:05.409Z,15.80
2018-09-02T02:06:46.623Z,18.90
2018-09-02T02:09:27.107Z,17.37
2018-09-02T02:12:16.235Z,17.60
2018-09-02T02:14:59.429Z,17.17
2018-09-02T02:17:50.003Z,17.17
2018-09-02T02:20:21.149Z,15.83
2018-09-02T02:23:12.106Z,16.20
2018-09-02T02:26:01.036Z,17.57
2018-09-02T02:28:52.357Z,16.03
2018-09-02T02:31:34.195Z,16.13
2018-09-02T02:34:26.485Z,15.97
2018-09-02T02:36:54.981Z,16.17
2018-09-02T02:39:35.976Z,16.87
2018-09-02T02:42:26.934Z,16.73
2018-09-02T02:45:16.792Z,16.07
2018-09-02T02:47:57.293Z,16.20
2018-09-02T02:50:50.781Z,15.37
2018-09-02T02:53:29.876Z,16.97
2018-09-02T02:56:09.850Z,17.57
2018-09-02T02:58:38.379Z,18.37
2018-09-02T03:01:30.680Z,18.93
2018-09-02T03:06:50.204Z,18.80
2018-09-02T03:09:32.962Z,19.30
2018-09-02T03:12:20.050Z,18.10
2018-09-02T03:15:09.666Z,19.50
2018-09-02T03:17:41.864Z,19.07
2018-09-02T03:20:31.328Z,20.90
2018-09-02T03:30:34.717Z,22.70
2018-09-02T03:33:17.038Z,21.77
2018-09-02T03:35:49.184Z,21.40
2018-09-02T03:38:35.754Z,21.60
2018-09-02T03:41:16.009Z,22.20
2018-09-02T03:43:44.588Z,21.60
2018-09-02T03:46:35.098Z,20.57
2018-09-02T03:49:07.995Z,22.43
2018-09-02T03:51:47.518Z,21.20
2018-09-02T03:54:19.940Z,21.73
2018-09-02T03:57:01.702Z,23.63
2018-09-02T04:00:01.137Z,19.97
2018-09-02T04:02:50.284Z,22.13
2018-09-02T04:06:29.830Z,22.07
2018-09-02T04:08:58.292Z,22.20
2018-09-02T04:11:26.929Z,23.17
2018-09-02T04:14:08.631Z,22.27
2018-09-02T04:16:45.930Z,21.80
2018-09-02T04:19:27.607Z,22.90
2018-09-02T04:22:07.559Z,24.47
2018-09-02T04:24:45.852Z,23.47
2018-09-02T04:27:38.341Z,24.97
2018-09-02T04:30:14.892Z,24.90
2018-09-02T04:32:43.515Z,24.20
2018-09-02T04:35:11.998Z,23.73
2018-09-02T04:37:41.933Z,24.60
2018-09-02T04:40:10.355Z,23.57
2018-09-02T04:42:38.939Z,24.00
2018-09-02T04:45:15.527Z,24.50
2018-09-02T04:47:44.387Z,23.60
2018-09-02T04:50:21.353Z,24.00
2018-09-02T04:52:50.233Z,22.57
2018-09-02T04:55:22.643Z,26.27
2018-09-02T04:57:51.189Z,22.80
2018-09-02T05:00:19.722Z,23.07
2018-09-02T05:02:54.936Z,24.10
2018-09-02T05:05:45.551Z,24.90
2018-09-02T05:08:32.553Z,23.50
2018-09-02T05:11:10.789Z,25.00
2018-09-02T05:13:47.705Z,23.20
2018-09-02T05:16:20.483Z,24.07
2018-09-02T05:18:49.217Z,21.80
2018-09-02T05:21:17.684Z,22.00
2018-09-02T05:23:46.259Z,22.97
2018-09-02T05:26:25.929Z,23.90
2018-09-02T05:28:54.497Z,23.10
2018-09-02T05:31:22.965Z,22.27
2018-09-02T05:33:59.762Z,22.37
2018-09-02T05:36:28.265Z,21.90
2018-09-02T05:38:56.827Z,23.37
2018-09-02T05:41:25.286Z,21.30
2018-09-02T05:44:04.811Z,22.83
2018-09-02T05:46:33.209Z,20.23
2018-09-02T05:49:01.726Z,24.37
2018-09-02T05:51:30.232Z,21.50
2018-09-02T05:54:01.896Z,21.93
2018-09-02T05:56:30.414Z,20.40
2018-09-02T05:58:59.300Z,18.27
2018-09-02T06:01:36.012Z,19.37
2018-09-02T06:04:06.354Z,18.90
2018-09-02T06:06:35.052Z,19.07
2018-09-02T06:09:05.744Z,20.10
2018-09-02T06:11:35.056Z,20.00
2018-09-02T06:14:03.746Z,20.60
2018-09-02T06:16:34.314Z,19.40
2018-09-02T06:19:02.834Z,20.07
2018-09-02T06:21:31.912Z,20.47
2018-09-02T06:24:05.534Z,20.43
2018-09-02T06:26:38.324Z,18.13
2018-09-02T06:29:06.897Z,17.60
2018-09-02T06:31:39.050Z,15.87
2018-09-02T06:34:14.397Z,18.80
2018-09-02T06:36:43.160Z,17.40
2018-09-02T06:39:12.644Z,19.13
2018-09-02T06:41:44.308Z,18.23
2018-09-02T06:46:50.681Z,17.70
2018-09-02T06:49:19.162Z,20.03
2018-09-02T06:51:47.507Z,18.53
2018-09-02T06:54:16.036Z,18.37
2018-09-02T06:56:44.839Z,16.90
2018-09-02T06:59:20.965Z,18.47
2018-09-02T07:01:56.328Z,16.13
2018-09-02T07:04:25.053Z,18.60
2018-09-02T07:07:12.904Z,16.83
2018-09-02T07:09:41.420Z,17.63
2018-09-02T07:12:09.845Z,18.67
2018-09-02T07:14:38.388Z,17.17
2018-09-02T07:17:06.955Z,16.60
2018-09-02T07:19:35.423Z,17.07
2018-09-02T07:22:06.824Z,18.40
2018-09-02T07:24:41.200Z,15.57
2018-09-02T07:27:09.889Z,17.50
2018-09-02T07:29:41.821Z,15.27
2018-09-02T07:32:10.329Z,15.50
2018-09-02T07:34:39.389Z,16.60
2018-09-02T07:37:07.995Z,15.87
2018-09-02T07:39:36.511Z,15.73
2018-09-02T07:42:04.941Z,16.07
2018-09-02T07:44:33.565Z,16.07
2018-09-02T07:47:24.217Z,16.87
2018-09-02T07:50:04.015Z,16.90
2018-09-02T07:52:44.106Z,16.20
2018-09-02T07:55:26.378Z,14.80
2018-09-02T07:58:07.213Z,14.90
2018-09-02T08:00:36.234Z,13.50
2018-09-02T08:03:04.743Z,14.13
2018-09-02T08:05:40.809Z,16.27
2018-09-02T08:08:21.641Z,15.57
2018-09-02T08:11:02.565Z,14.53
2018-09-02T08:13:31.053Z,15.97
2018-09-02T08:15:59.617Z,14.70
2018-09-02T08:18:38.895Z,14.60
2018-09-02T08:21:07.967Z,14.50
2018-09-02T08:23:36.558Z,13.57
2018-09-02T08:26:05.347Z,14.90
2018-09-02T08:28:34.091Z,12.03
2018-09-02T08:31:03.624Z,134.97
2018-09-02T08:33:32.542Z,9.23
2018-09-02T08:38:48.610Z,11.80
2018-09-02T08:41:17.593Z,13.30
2018-09-02T08:43:46.140Z,11.40
2018-09-02T08:46:14.647Z,9.70
2018-09-02T08:48:43.137Z,24.03
2018-09-02T08:51:20.803Z,10.77
2018-09-02T08:53:49.288Z,11.47
2018-09-02T08:56:24.475Z,14.53
2018-09-02T08:58:53.042Z,20.57
2018-09-02T09:01:21.608Z,12.23
2018-09-02T09:03:53.204Z,14.20
2018-09-02T09:06:21.976Z,12.40
2018-09-02T09:08:50.657Z,14.10
2018-09-02T09:11:23.274Z,13.23
2018-09-02T09:13:51.832Z,14.07
2018-09-02T09:16:20.517Z,13.37
2018-09-02T09:18:57.490Z,13.00
2018-09-02T09:21:26.106Z,13.37
2018-09-02T09:23:54.900Z,14.67
2018-09-02T09:26:24.009Z,13.00
2018-09-02T09:29:13.060Z,12.80
2018-09-02T09:31:41.668Z,13.07
2018-09-02T09:34:19.029Z,13.90
2018-09-02T09:36:47.740Z,12.90
2018-09-02T09:39:16.239Z,13.13
2018-09-02T09:41:44.723Z,14.00
2018-09-02T09:44:19.053Z,14.13
2018-09-02T09:47:06.401Z,12.90
2018-09-02T09:49:34.695Z,13.23
2018-09-02T09:52:09.400Z,12.70
2018-09-02T09:54:40.768Z,12.23
2018-09-02T09:57:10.004Z,12.13
2018-09-02T09:59:51.503Z,12.73
2018-09-02T10:02:22.538Z,13.67
2018-09-02T10:05:00.918Z,12.27
2018-09-02T10:07:38.812Z,10.93
2018-09-02T10:10:07.394Z,11.30
2018-09-02T10:12:35.956Z,12.67
2018-09-02T10:15:04.581Z,12.90
2018-09-02T10:17:39.180Z,13.17
2018-09-02T10:20:17.669Z,10.10
2018-09-02T10:22:46.962Z,11.83
2018-09-02T10:25:21.997Z,11.73
2018-09-02T10:27:51.820Z,11.10
2018-09-02T10:30:34.268Z,9.90
2018-09-02T10:33:02.866Z,10.87
2018-09-02T10:35:40.977Z,11.70
2018-09-02T10:38:10.210Z,9.67
2018-09-02T10:40:41.686Z,10.97
2018-09-02T10:43:16.044Z,11.20
2018-09-02T10:45:44.668Z,10.10
2018-09-02T10:48:13.432Z,71.57
2018-09-02T10:50:43.670Z,13.07
2018-09-02T10:53:12.255Z,11.33
2018-09-02T10:55:41.114Z,10.50
2018-09-02T10:58:14.298Z,10.30
2018-09-02T11:00:47.892Z,9.67
2018-09-02T11:03:16.394Z,9.27
2018-09-02T11:05:44.906Z,9.97
2018-09-02T11:08:13.922Z,10.93
2018-09-02T11:10:44.351Z,13.90
2018-09-02T11:13:22.959Z,16.27
2018-09-02T11:15:56.371Z,11.27
2018-09-02T11:18:34.161Z,10.57
2018-09-02T11:21:07.388Z,9.83
2018-09-02T11:23:46.090Z,11.73
2018-09-02T11:26:24.807Z,13.03
2018-09-02T11:28:55.831Z,10.87
2018-09-02T11:31:24.919Z,11.33
2018-09-02T11:34:36.643Z,11.37
2018-09-02T11:37:05.790Z,9.53
2018-09-02T11:39:34.375Z,8.60
2018-09-02T11:42:02.877Z,7.90
2018-09-02T11:44:31.481Z,8.20
2018-09-02T11:47:01.546Z,7.30
2018-09-02T11:49:38.414Z,6.50
2018-09-02T11:52:07.319Z,6.30
2018-09-02T11:54:36.498Z,7.10
2018-09-02T11:57:05.146Z,8.73
2018-09-02T11:59:41.584Z,7.90
2018-09-02T12:02:20.153Z,8.37
2018-09-02T12:04:48.761Z,7.50
2018-09-02T12:07:17.327Z,7.90
2018-09-02T12:09:45.979Z,7.07
2018-09-02T12:12:14.558Z,6.80
2018-09-02T12:14:44.173Z,7.40
2018-09-02T12:17:19.948Z,8.23
2018-09-02T12:19:49.130Z,8.50
2018-09-02T12:22:22.336Z,7.70
2018-09-02T12:24:52.212Z,7.80
2018-09-02T12:27:22.023Z,6.93
2018-09-02T12:29:50.677Z,7.50
2018-09-02T12:32:24.995Z,8.33
2018-09-02T12:34:53.773Z,8.07
2018-09-02T12:37:31.154Z,7.30
2018-09-02T12:40:00.299Z,6.40
2018-09-02T12:42:33.064Z,6.47
2018-09-02T12:45:12.640Z,6.30
2018-09-02T12:47:46.777Z,7.03
2018-09-02T12:50:22.397Z,7.70
2018-09-02T12:55:26.989Z,6.90
2018-09-02T12:57:56.236Z,8.10
2018-09-02T13:00:24.911Z,8.47
2018-09-02T13:03:02.420Z,6.13
2018-09-02T13:05:30.959Z,6.30
2018-09-02T13:07:59.633Z,6.50
2018-09-02T13:10:28.353Z,7.17
2018-09-02T13:13:04.755Z,7.20
2018-09-02T13:15:33.263Z,8.43
2018-09-02T13:18:02.334Z,8.73
2018-09-02T13:20:38.565Z,8.90
2018-09-02T13:23:07.053Z,7.83
2018-09-02T13:25:35.553Z,7.47
2018-09-02T13:28:04.069Z,7.60
2018-09-02T13:30:35.088Z,8.37
2018-09-02T13:33:04.620Z,7.13
2018-09-02T13:35:43.582Z,8.90
2018-09-02T13:38:12.152Z,8.33
2018-09-02T13:40:40.702Z,9.13
2018-09-02T13:43:25.972Z,8.33
2018-09-02T13:46:04.602Z,7.90
2018-09-02T13:48:44.121Z,7.93
2018-09-02T13:51:15.663Z,8.03
2018-09-02T13:53:44.467Z,8.30
2018-09-02T13:56:12.970Z,8.13
2018-09-02T13:58:56.147Z,8.37
2018-09-02T14:01:34.990Z,9.93
2018-09-02T14:04:06.139Z,8.93
2018-09-02T14:06:46.643Z,8.90
2018-09-02T14:09:15.175Z,8.90
2018-09-02T14:11:44.979Z,7.33
2018-09-02T14:14:13.543Z,6.63
2018-09-02T14:16:54.998Z,6.20
2018-09-02T14:19:28.276Z,5.80
2018-09-02T14:22:11.140Z,6.40
2018-09-02T14:24:58.533Z,6.90
2018-09-02T14:27:38.630Z,5.70
2018-09-02T14:30:07.805Z,7.67
2018-09-02T14:32:45.955Z,6.03
2018-09-02T14:35:45.801Z,5.90
2018-09-02T14:38:16.244Z,5.47
2018-09-02T14:40:46.002Z,5.13
2018-09-02T14:43:27.431Z,5.60
2018-09-02T14:45:58.212Z,5.23
2018-09-02T14:48:37.426Z,5.40
2018-09-02T14:51:15.745Z,5.87
2018-09-02T14:53:54.873Z,5.30
2018-09-02T14:56:27.297Z,5.30
2018-09-02T14:58:56.800Z,6.07
2018-09-02T15:01:29.924Z,5.90
2018-09-02T15:03:58.442Z,5.83
2018-09-02T15:06:29.410Z,4.70
2018-09-02T15:08:58.266Z,5.37
2018-09-02T15:11:35.898Z,4.40
2018-09-02T15:14:05.098Z,4.80
2018-09-02T15:16:39.667Z,4.63
2018-09-02T15:19:17.246Z,4.93
2018-09-02T15:21:51.207Z,4.60
2018-09-02T15:24:26.599Z,4.23
2018-09-02T15:27:07.398Z,5.40
2018-09-02T15:29:35.971Z,4.70
2018-09-02T15:32:04.622Z,5.30
2018-09-02T15:34:41.217Z,4.40
2018-09-02T15:37:10.474Z,4.83
2018-09-02T15:39:39.040Z,5.00
2018-09-02T15:42:18.945Z,4.40
2018-09-02T15:44:54.638Z,4.13
2018-09-02T15:47:23.937Z,4.37
2018-09-02T15:49:58.630Z,4.47
2018-09-02T15:52:27.336Z,4.20
2018-09-02T15:55:01.611Z,4.47
2018-09-02T15:57:38.245Z,4.20
2018-09-02T16:00:13.389Z,4.20
2018-09-02T16:02:42.992Z,4.73
2018-09-02T16:05:11.498Z,4.30
2018-09-02T16:07:40.076Z,4.63
2018-09-02T16:10:17.305Z,5.07
2018-09-02T16:12:46.027Z,4.90
2018-09-02T16:15:14.580Z,4.50
2018-09-02T16:17:44.700Z,3.80
2018-09-02T16:20:23.255Z,4.20
2018-09-02T16:23:02.929Z,3.87
2018-09-02T16:25:35.402Z,4.43
2018-09-02T16:28:13.302Z,4.10
2018-09-02T16:33:16.855Z,4.33
2018-09-02T16:35:45.228Z,4.87
2018-09-02T16:38:16.863Z,4.93
2018-09-02T16:40:45.527Z,4.93
2018-09-02T16:43:22.686Z,4.43
2018-09-02T16:45:51.323Z,4.43
2018-09-02T16:48:38.764Z,4.30
2018-09-02T16:51:14.419Z,5.10
2018-09-02T16:53:43.032Z,4.10
2018-09-02T16:56:17.063Z,4.80
2018-09-02T16:58:45.845Z,4.20
2018-09-02T17:01:28.679Z,4.20
2018-09-02T17:06:51.851Z,4.17
2018-09-02T17:09:30.316Z,4.13
2018-09-02T17:14:41.911Z,4.87
2018-09-02T17:17:19.904Z,4.00
2018-09-02T17:20:00.778Z,4.37
2018-09-02T17:22:29.337Z,3.77
2018-09-02T17:25:13.028Z,4.20
2018-09-02T17:27:43.077Z,4.77
2018-09-02T17:30:33.355Z,4.20
2018-09-02T17:33:01.951Z,4.67
2018-09-02T17:35:31.028Z,5.57
2018-09-02T17:38:06.705Z,5.83
2018-09-02T17:40:39.911Z,5.20
2018-09-02T17:43:08.611Z,4.80
2018-09-02T17:45:37.247Z,5.37
2018-09-02T17:48:08.602Z,5.07
2018-09-02T17:53:28.394Z,6.20
2018-09-02T17:58:35.532Z,6.37
2018-09-02T18:01:04.812Z,5.83
2018-09-02T18:03:34.750Z,7.27
2018-09-02T18:06:11.764Z,6.17
2018-09-02T18:08:44.597Z,6.10
2018-09-02T18:11:13.330Z,6.63
2018-09-02T18:13:43.838Z,6.43
2018-09-02T18:16:15.620Z,7.43
2018-09-02T18:18:57.141Z,7.17
2018-09-02T18:21:34.932Z,6.50
2018-09-02T18:24:05.115Z,7.40
2018-09-02T18:26:33.825Z,6.73
2018-09-02T18:29:02.484Z,6.53
2018-09-02T18:31:31.174Z,8.60
2018-09-02T18:33:59.748Z,9.27
2018-09-02T18:36:34.848Z,8.97
2018-09-02T18:39:03.414Z,7.40
2018-09-02T18:41:31.967Z,6.53
2018-09-02T18:44:01.356Z,7.20
2018-09-02T18:46:37.337Z,7.90
2018-09-02T18:49:06.825Z,7.60
2018-09-02T18:51:36.706Z,6.90
2018-09-02T18:54:11.460Z,7.23
2018-09-02T18:56:49.866Z,6.67
2018-09-02T18:59:20.085Z,7.20
2018-09-02T19:01:50.763Z,7.53
2018-09-02T19:04:20.179Z,8.17
2018-09-02T19:06:50.881Z,8.13
2018-09-02T19:11:54.954Z,8.37
2018-09-02T19:14:25.023Z,9.10
2018-09-02T19:16:53.956Z,9.87
2018-09-02T19:19:29.669Z,9.97
2018-09-02T19:21:59.775Z,9.43
2018-09-02T19:24:28.450Z,8.20
2018-09-02T19:26:57.699Z,6.60
2018-09-02T19:29:33.199Z,6.10
2018-09-02T19:34:49.718Z,7.20
2018-09-02T19:37:18.404Z,5.60
2018-09-02T19:39:48.462Z,4.37
2018-09-02T19:42:18.483Z,2.77
2018-09-02T19:44:47.438Z,2.70
2018-09-02T19:47:17.023Z,1.50
2018-09-02T19:49:53.708Z,2.20
2018-09-02T19:52:22.880Z,1.70
2018-09-02T19:54:51.458Z,1.20
2018-09-02T19:57:21.788Z,3.27
2018-09-02T19:59:58.283Z,1.00
2018-09-02T20:02:34.628Z,1.20
2018-09-02T20:05:03.259Z,1.00
2018-09-02T20:07:37.750Z,0.80
2018-09-02T20:10:18.356Z,1.40
2018-09-02T20:12:49.566Z,1.20
2018-09-02T20:15:18.321Z,1.83
2018-09-02T20:17:46.981Z,1.17
2018-09-02T20:20:22.355Z,1.30
2018-09-02T20:22:51.099Z,1.20
2018-09-02T20:25:23.609Z,1.30
2018-09-02T20:30:29.492Z,1.50
2018-09-02T20:32:58.129Z,1.57
2018-09-02T20:35:27.885Z,0.90
2018-09-02T20:38:05.656Z,0.80
2018-09-02T20:43:07.807Z,1.30
2018-09-02T20:45:36.365Z,1.73
2018-09-02T20:48:08.847Z,1.73
2018-09-02T20:50:38.059Z,1.37
2018-09-02T20:53:06.675Z,1.00
2018-09-02T20:55:49.203Z,1.30
2018-09-02T20:58:17.723Z,0.90
2018-09-02T21:00:46.361Z,0.90
2018-09-02T21:03:15.460Z,1.00
2018-09-02T21:05:53.044Z,1.00
2018-09-02T21:08:33.624Z,0.90
2018-09-02T21:11:04.691Z,0.90
2018-09-02T21:13:33.906Z,1.00
2018-09-02T21:16:02.505Z,0.80
2018-09-02T21:18:38.931Z,1.73
2018-09-02T21:21:23.762Z,0.80
2018-09-02T21:24:01.208Z,1.10
2018-09-02T21:26:41.833Z,1.63
2018-09-02T21:29:32.359Z,0.80
2018-09-02T21:32:12.577Z,1.60
2018-09-02T21:34:44.606Z,2.10
2018-09-02T21:37:23.804Z,1.00
2018-09-02T21:42:31.585Z,1.20
2018-09-02T21:45:00.040Z,0.80
2018-09-02T21:47:37.303Z,1.17
2018-09-02T21:50:17.545Z,1.10
2018-09-02T21:52:57.751Z,2.90
2018-09-02T21:55:37.490Z,1.53
2018-09-02T21:58:16.229Z,0.90
2018-09-02T22:00:47.491Z,0.83
2018-09-02T22:03:20.237Z,1.13
2018-09-02T22:05:59.442Z,1.93
2018-09-02T22:08:31.525Z,1.00
2018-09-02T22:11:01.042Z,0.90
2018-09-02T22:13:37.349Z,0.93
2018-09-02T22:16:06.140Z,0.90
2018-09-02T22:18:36.005Z,1.20
2018-09-02T22:21:15.314Z,1.23
2018-09-02T22:23:56.326Z,0.90
2018-09-02T22:26:36.784Z,0.87
2018-09-02T22:31:55.706Z,1.00
2018-09-02T22:34:24.164Z,0.97
2018-09-02T22:37:08.466Z,0.90
2018-09-02T22:39:47.502Z,0.93
2018-09-02T22:42:18.836Z,1.50
2018-09-02T22:44:57.808Z,1.87
2018-09-02T22:47:29.322Z,0.77
2018-09-02T22:49:57.766Z,0.80
2018-09-02T22:52:40.054Z,0.90
2018-09-02T22:58:01.245Z,2.10
2018-09-02T23:00:33.540Z,1.00
2018-09-02T23:03:12.213Z,1.67
2018-09-02T23:05:49.192Z,1.63
2018-09-02T23:08:22.179Z,1.03
2018-09-02T23:11:02.896Z,1.87
2018-09-02T23:13:31.306Z,1.03
2018-09-02T23:16:03.867Z,0.80
2018-09-02T23:18:36.179Z,0.97
2018-09-02T23:21:15.786Z,1.23
2018-09-02T23:23:53.651Z,1.83
2018-09-02T23:26:31.661Z,1.50
2018-09-02T23:29:00.350Z,1.13
2018-09-02T23:31:28.866Z,1.57
2018-09-02T23:34:07.109Z,1.17
2018-09-02T23:36:44.825Z,1.00
2018-09-02T23:39:13.341Z,1.40
2018-09-02T23:41:41.829Z,1.40
2018-09-02T23:44:10.280Z,0.80
2018-09-02T23:46:39.251Z,0.80
2018-09-02T23:49:08.362Z,1.17
2018-09-02T23:51:39.104Z,1.23
2018-09-02T23:54:20.152Z,0.90
2018-09-02T23:56:54.766Z,1.13
2018-09-02T23:59:32.330Z,1.23
